Time;durP1;ratioP1;P1;durP2;ratioP2;P2;SDS_P1;SDS_P2;PMS_P1;PMS_P2;Temp;Humidity;BMP_temperature;BMP_pressure;BME280_temperature;BME280_humidity;BME280_pressure;Samples;Min_cycle;Max_cycle;Signal;HPM_P1;HPM_P2
2024/02/06 00:01:11;;;;;;;14.40;11.20;;;;;;;4.18;100.00;152437.97;5014974;28;20974;-96
2024/02/06 00:03:37;;;;;;;17.33;11.90;;;;;;;4.17;100.00;152434.13;5031706;28;20452;-96
2024/02/06 00:06:06;;;;;;;16.30;12.13;;;;;;;4.16;100.00;152431.53;5015486;28;20436;-95
2024/02/06 00:08:33;;;;;;;15.30;10.57;;;;;;;4.14;100.00;152426.38;5031544;28;20452;-95
2024/02/06 00:10:59;;;;;;;16.33;11.10;;;;;;;4.12;100.00;152422.53;5014752;28;20895;-95
2024/02/06 00:13:26;;;;;;;16.17;11.93;;;;;;;4.11;100.00;152419.94;5030719;28;20451;-96
2024/02/06 00:15:53;;;;;;;12.67;11.10;;;;;;;4.09;100.00;152414.81;5031855;28;20475;-96
2024/02/06 00:18:20;;;;;;;19.50;13.20;;;;;;;4.09;100.00;152414.81;5015082;28;20455;-95
2024/02/06 00:20:46;;;;;;;15.00;11.97;;;;;;;4.13;100.00;152423.84;5031366;28;20448;-96
2024/02/06 00:23:15;;;;;;;16.33;11.50;;;;;;;4.16;100.00;152432.81;5031711;28;20935;-96
2024/02/06 00:25:42;;;;;;;12.87;11.13;;;;;;;4.17;100.00;152434.13;5031468;28;20491;-95
2024/02/06 00:28:08;;;;;;;16.50;11.87;;;;;;;4.15;100.00;152430.28;5031677;28;20559;-94
2024/02/06 00:30:35;;;;;;;16.47;12.37;;;;;;;4.17;100.00;152434.13;5019862;28;20837;-94
2024/02/06 00:33:02;;;;;;;14.77;12.10;;;;;;;4.11;100.00;152419.94;5020688;28;20490;-94
2024/02/06 00:35:29;;;;;;;13.90;11.50;;;;;;;4.12;100.00;152422.53;5037147;28;20539;-94
2024/02/06 00:37:57;;;;;;;15.13;11.73;;;;;;;4.14;100.00;152426.38;5018579;28;20513;-94
2024/02/06 00:40:26;;;;;;;16.90;11.80;;;;;;;4.09;100.00;152413.50;5017973;28;20472;-94
2024/02/06 00:42:53;;;;;;;16.90;10.47;;;;;;;4.09;100.00;152414.81;5017780;28;20439;-94
2024/02/06 00:45:20;;;;;;;15.77;10.93;;;;;;;4.07;100.00;152409.66;5017430;28;20543;-94
2024/02/06 00:47:49;;;;;;;16.37;12.03;;;;;;;4.09;100.00;152414.81;5017152;28;20448;-94
2024/02/06 00:50:17;;;;;;;16.20;11.87;;;;;;;4.11;100.00;152418.66;5034845;28;20477;-94
2024/02/06 00:52:44;;;;;;;15.03;10.97;;;;;;;4.12;100.00;152421.25;5017459;28;20539;-94
2024/02/06 00:55:11;;;;;;;13.90;11.53;;;;;;;4.11;100.00;152419.94;5015058;28;20428;-95
2024/02/06 00:57:39;;;;;;;16.33;11.83;;;;;;;4.11;100.00;152419.94;5014400;28;20870;-95
2024/02/06 01:00:08;;;;;;;15.50;11.40;;;;;;;4.15;100.00;152430.28;5030783;28;20452;-95
2024/02/06 01:02:35;;;;;;;16.20;11.27;;;;;;;4.16;100.00;152431.53;5014256;28;20444;-94
2024/02/06 01:05:02;;;;;;;16.13;11.27;;;;;;;4.16;100.00;152432.81;5030459;28;20603;-95
2024/02/06 01:07:29;;;;;;;16.80;11.20;;;;;;;4.18;100.00;152437.97;5013753;28;20825;-95
2024/02/06 01:09:56;;;;;;;15.93;11.17;;;;;;;4.20;100.00;152441.84;5013719;28;20471;-94
2024/02/06 01:12:23;;;;;;;14.20;10.63;;;;;;;4.21;100.00;152445.69;5014124;28;20466;-95
2024/02/06 01:14:51;;;;;;;15.10;11.23;;;;;;;4.23;100.00;152450.88;5014157;28;20448;-95
2024/02/06 01:17:18;;;;;;;16.50;11.83;;;;;;;4.22;100.00;152447.00;5030371;28;20448;-95
2024/02/06 01:19:45;;;;;;;16.70;11.40;;;;;;;4.21;100.00;152445.69;5030228;28;20452;-94
2024/02/06 01:22:12;;;;;;;19.37;11.97;;;;;;;4.21;100.00;152445.69;5015889;28;20451;-95
2024/02/06 01:24:39;;;;;;;15.63;10.07;;;;;;;4.23;100.00;152449.59;5014683;28;20431;-94
2024/02/06 01:27:05;;;;;;;16.63;9.50;;;;;;;4.26;100.00;152457.31;5013744;28;20444;-95
2024/02/06 01:29:33;;;;;;;17.30;11.00;;;;;;;4.27;100.00;152459.88;5013627;28;20607;-94
2024/02/06 01:32:02;;;;;;;13.73;9.70;;;;;;;4.26;100.00;152458.56;5007457;28;20979;-95
2024/02/06 01:34:29;;;;;;;15.47;10.00;;;;;;;4.23;100.00;152449.59;4994414;28;20474;-95
2024/02/06 01:36:55;;;;;;;12.53;9.00;;;;;;;4.26;100.00;152457.31;4994018;28;20449;-95
2024/02/06 01:39:22;;;;;;;16.27;10.07;;;;;;;4.27;100.00;152459.88;4993710;28;20480;-95
2024/02/06 01:41:49;;;;;;;12.47;9.63;;;;;;;4.27;100.00;152459.88;4993428;28;20451;-95
2024/02/06 01:44:15;;;;;;;14.10;10.03;;;;;;;4.26;100.00;152458.56;4993934;28;20452;-95
2024/02/06 01:46:43;;;;;;;15.93;10.77;;;;;;;4.26;100.00;152457.31;4993883;28;20540;-95
2024/02/06 01:49:12;;;;;;;11.57;9.33;;;;;;;4.28;100.00;152462.47;4993469;28;20511;-95
2024/02/06 01:51:39;;;;;;;11.53;8.67;;;;;;;4.30;100.00;152467.59;5010762;28;20447;-94
2024/02/06 01:54:06;;;;;;;13.47;9.60;;;;;;;4.29;100.00;152465.00;5013406;28;20489;-94
2024/02/06 01:56:34;;;;;;;15.57;9.60;;;;;;;4.30;100.00;152467.59;5013399;28;20557;-95
2024/02/06 01:59:01;;;;;;;12.53;9.50;;;;;;;4.29;100.00;152465.00;5013227;28;20858;-94
2024/02/06 02:01:28;;;;;;;15.77;10.10;;;;;;;4.27;100.00;152459.88;5013031;28;20467;-94
2024/02/06 02:03:54;;;;;;;9.70;7.80;;;;;;;4.23;100.00;152449.59;5013436;28;20434;-94
2024/02/06 02:06:24;;;;;;;13.40;10.40;;;;;;;4.23;100.00;152450.88;5013058;28;20539;-94
2024/02/06 02:08:51;;;;;;;13.37;8.90;;;;;;;4.25;100.00;152454.72;5013189;28;20949;-94
2024/02/06 02:11:18;;;;;;;15.50;9.63;;;;;;;4.23;100.00;152450.88;5012996;28;20468;-94
2024/02/06 02:13:45;;;;;;;12.93;9.33;;;;;;;4.25;100.00;152454.72;5013182;28;20469;-94
2024/02/06 02:16:12;;;;;;;13.40;9.67;;;;;;;4.24;100.00;152453.44;5012838;28;20451;-94
2024/02/06 02:18:39;;;;;;;13.60;10.43;;;;;;;4.25;100.00;152456.03;5013418;28;20450;-94
2024/02/06 02:21:09;;;;;;;13.20;9.90;;;;;;;4.25;100.00;152454.72;5012799;28;20478;-94
2024/02/06 02:23:36;;;;;;;12.60;9.50;;;;;;;4.26;100.00;152458.56;5012582;28;20440;-93
2024/02/06 02:26:03;;;;;;;13.43;8.73;;;;;;;4.23;100.00;152450.88;4993737;28;20499;-94
2024/02/06 02:28:30;;;;;;;11.87;9.10;;;;;;;4.23;100.00;152449.59;4993729;28;20449;-96
2024/02/06 02:30:57;;;;;;;10.87;8.50;;;;;;;4.20;100.00;152443.16;4993536;28;20563;-94
2024/02/06 02:33:24;;;;;;;17.17;8.87;;;;;;;4.20;100.00;152441.84;5010762;28;20475;-95
2024/02/06 02:35:51;;;;;;;12.77;9.40;;;;;;;4.18;100.00;152436.72;5014630;28;20448;-95
2024/02/06 02:38:20;;;;;;;9.97;7.70;;;;;;;4.15;100.00;152428.97;5000079;28;20950;-94
2024/02/06 02:40:47;;;;;;;13.20;9.30;;;;;;;4.14;100.00;152426.38;5000231;28;20462;-94
2024/02/06 02:43:14;;;;;;;13.30;8.40;;;;;;;4.11;100.00;152419.94;5016498;28;20451;-95
2024/02/06 02:45:41;;;;;;;13.80;9.07;;;;;;;4.08;100.00;152410.91;5000240;28;20529;-94
2024/02/06 02:48:08;;;;;;;14.57;9.07;;;;;;;4.07;100.00;152408.38;5000208;28;20471;-94
2024/02/06 02:50:35;;;;;;;12.80;9.23;;;;;;;4.08;100.00;152410.91;5000041;28;20567;-94
2024/02/06 02:53:02;;;;;;;11.90;8.00;;;;;;;3.97;100.00;152383.88;4999945;28;20436;-95
2024/02/06 02:55:30;;;;;;;15.80;9.83;;;;;;;3.97;100.00;152383.88;5000251;28;20527;-95
2024/02/06 02:57:56;;;;;;;14.03;9.60;;;;;;;3.99;100.00;152389.06;5015949;28;20479;-96
2024/02/06 03:00:24;;;;;;;11.60;8.83;;;;;;;3.98;100.00;152385.16;4999727;28;20440;-94
2024/02/06 03:02:50;;;;;;;12.90;9.20;;;;;;;4.01;100.00;152392.91;5015608;28;20546;-95
2024/02/06 03:05:17;;;;;;;11.07;7.93;;;;;;;4.05;100.00;152403.22;5001986;28;20496;-95
2024/02/06 03:07:44;;;;;;;11.90;8.80;;;;;;;4.09;100.00;152413.50;4996012;28;20963;-94
2024/02/06 03:10:11;;;;;;;10.27;8.20;;;;;;;4.02;100.00;152396.78;4980285;28;20473;-95
2024/02/06 03:12:39;;;;;;;11.00;8.47;;;;;;;3.95;100.00;152377.44;4980400;28;20499;-95
2024/02/06 03:15:06;;;;;;;11.77;8.80;;;;;;;3.90;100.00;152364.56;4980296;28;20946;-95
2024/02/06 03:17:33;;;;;;;12.00;8.80;;;;;;;3.90;100.00;152364.56;4979884;28;20475;-95
2024/02/06 03:20:01;;;;;;;15.87;8.67;;;;;;;3.74;100.00;152324.66;4979917;28;20476;-95
2024/02/06 03:22:31;;;;;;;12.87;9.43;;;;;;;3.63;100.00;152297.63;4979981;28;20453;-95
2024/02/06 03:24:58;;;;;;;11.60;8.13;;;;;;;3.54;100.00;152274.47;4980283;28;20441;-95
2024/02/06 03:27:25;;;;;;;11.97;8.07;;;;;;;3.50;100.00;152264.16;4982520;28;20569;-95
2024/02/06 03:29:53;;;;;;;10.70;8.53;;;;;;;3.45;100.00;152250.00;4980004;28;20504;-95
2024/02/06 03:32:20;;;;;;;11.67;8.57;;;;;;;3.37;100.00;152229.41;4986713;28;20485;-95
2024/02/06 03:34:47;;;;;;;10.03;7.80;;;;;;;3.27;100.00;152204.97;4960440;28;20956;-95
2024/02/06 03:37:14;;;;;;;11.67;8.60;;;;;;;3.28;100.00;152206.25;4960281;28;20449;-95
2024/02/06 03:39:40;;;;;;;13.00;8.77;;;;;;;3.19;100.00;152184.38;4961098;28;20552;-95
2024/02/06 03:42:07;;;;;;;11.43;8.93;;;;;;;3.13;100.00;152167.63;4979730;28;20445;-95
2024/02/06 03:44:34;;;;;;;13.80;9.90;;;;;;;3.10;100.00;152159.94;4979643;28;20429;-95
2024/02/06 03:47:02;;;;;;;12.77;7.70;;;;;;;3.07;100.00;152153.50;4978580;28;20451;-95
2024/02/06 03:49:28;;;;;;;10.73;8.27;;;;;;;3.03;100.00;152144.47;4979100;28;20456;-95
2024/02/06 03:51:55;;;;;;;13.77;8.50;;;;;;;2.99;100.00;152134.16;4979382;28;20515;-95
2024/02/06 03:54:22;;;;;;;10.70;7.37;;;;;;;2.94;100.00;152120.00;4981558;28;20515;-95
2024/02/06 03:56:49;;;;;;;12.40;8.60;;;;;;;2.95;100.00;152122.59;4995235;28;20859;-95
2024/02/06 03:59:15;;;;;;;13.67;8.73;;;;;;;2.96;100.00;152125.19;5000378;28;20483;-95
2024/02/06 04:01:44;;;;;;;15.63;9.23;;;;;;;2.91;100.00;152112.34;4979116;28;20495;-95
2024/02/06 04:04:12;;;;;;;14.37;8.53;;;;;;;2.86;100.00;152100.72;4980884;28;20476;-95
2024/02/06 04:06:38;;;;;;;14.70;7.60;;;;;;;2.82;100.00;152089.16;4980475;28;20448;-95
2024/02/06 04:09:06;;;;;;;11.20;8.10;;;;;;;2.77;100.00;152077.59;4978591;28;20532;-94
2024/02/06 04:11:33;;;;;;;13.10;7.80;;;;;;;2.80;100.00;152084.03;4982460;28;20980;-94
2024/02/06 04:13:59;;;;;;;10.90;7.80;;;;;;;2.77;100.00;152076.28;4994693;28;20484;-95
2024/02/06 04:16:26;;;;;;;12.40;8.37;;;;;;;2.74;100.00;152068.56;4995125;28;20464;-95
2024/02/06 04:18:53;;;;;;;9.63;7.80;;;;;;;2.75;100.00;152071.16;4978368;28;20433;-95
2024/02/06 04:21:21;;;;;;;11.43;8.73;;;;;;;2.73;100.00;152067.28;4991509;28;20457;-95
2024/02/06 04:23:48;;;;;;;9.60;6.80;;;;;;;2.70;100.00;152058.31;4958718;28;20446;-95
2024/02/06 04:26:14;;;;;;;12.03;8.00;;;;;;;2.70;100.00;152058.31;4974971;28;20537;-96
2024/02/06 04:28:41;;;;;;;10.63;7.50;;;;;;;2.70;100.00;152058.31;4987014;28;20448;-95
2024/02/06 04:31:07;;;;;;;11.33;7.80;;;;;;;2.72;100.00;152064.75;5000568;28;20508;-95
2024/02/06 04:33:34;;;;;;;13.23;7.90;;;;;;;2.74;100.00;152069.88;5004510;28;20467;-95
2024/02/06 04:36:01;;;;;;;13.67;8.07;;;;;;;2.77;100.00;152076.28;4994310;28;20449;-95
2024/02/06 04:38:29;;;;;;;11.23;7.43;;;;;;;2.76;100.00;152075.00;4986808;28;20586;-94
2024/02/06 04:40:56;;;;;;;13.00;8.73;;;;;;;2.77;100.00;152076.28;4994112;28;20529;-94
2024/02/06 04:43:23;;;;;;;13.17;9.17;;;;;;;2.76;100.00;152073.72;4978343;28;20963;-95
2024/02/06 04:45:49;;;;;;;13.97;9.40;;;;;;;2.76;100.00;152075.00;4987897;28;20882;-95
2024/02/06 04:48:16;;;;;;;14.00;8.60;;;;;;;2.76;100.00;152075.00;4996089;28;20468;-93
2024/02/06 04:50:43;;;;;;;11.97;8.67;;;;;;;2.78;100.00;152080.13;4990276;28;20482;-93
2024/02/06 04:53:10;;;;;;;13.40;9.33;;;;;;;2.79;100.00;152081.44;4993536;28;20444;-93
2024/02/06 04:55:41;;;;;;;16.90;10.17;;;;;;;2.81;100.00;152086.56;4992967;28;20820;-94
2024/02/06 04:58:07;;;;;;;13.57;9.63;;;;;;;2.76;100.00;152075.00;4993066;28;20803;-93
2024/02/06 05:00:34;;;;;;;14.90;10.00;;;;;;;2.75;100.00;152071.16;5010344;28;20923;-93
2024/02/06 05:03:01;;;;;;;16.67;10.90;;;;;;;2.72;100.00;152063.44;5009659;28;20981;-93
2024/02/06 05:05:27;;;;;;;15.10;10.27;;;;;;;2.71;100.00;152060.84;4994148;28;20456;-93
2024/02/06 05:07:54;;;;;;;16.17;10.07;;;;;;;2.72;100.00;152063.44;5009647;28;20563;-93
2024/02/06 05:10:21;;;;;;;15.83;10.60;;;;;;;2.71;100.00;152060.84;4999088;28;21072;-92
2024/02/06 05:12:49;;;;;;;14.97;8.90;;;;;;;2.63;100.00;152041.56;5001600;28;20563;-93
2024/02/06 05:15:16;;;;;;;13.27;9.80;;;;;;;2.56;100.00;152022.28;4992463;28;20502;-92
2024/02/06 05:17:42;;;;;;;14.50;10.60;;;;;;;2.52;100.00;152011.97;4979111;28;20941;-92
2024/02/06 05:20:10;;;;;;;15.00;10.77;;;;;;;2.55;100.00;152019.69;4977170;28;20803;-92
2024/02/06 05:22:37;;;;;;;16.40;11.20;;;;;;;2.50;100.00;152008.13;4976841;28;20515;-91
2024/02/06 05:25:05;;;;;;;15.77;11.00;;;;;;;2.54;100.00;152017.16;5009789;28;20457;-92
2024/02/06 05:27:31;;;;;;;18.87;11.57;;;;;;;2.61;100.00;152036.44;4977221;28;20441;-91
2024/02/06 05:30:04;;;;;;;17.60;12.33;;;;;;;2.68;100.00;152053.13;4993312;28;20441;-92
2024/02/06 05:32:31;;;;;;;17.60;11.63;;;;;;;2.69;100.00;152057.00;5009765;28;20512;-92
2024/02/06 05:34:59;;;;;;;18.60;12.80;;;;;;;2.70;100.00;152059.56;5013688;28;20490;-92
2024/02/06 05:37:26;;;;;;;16.67;10.73;;;;;;;2.76;100.00;152073.72;4993583;28;20865;-92
2024/02/06 05:39:52;;;;;;;18.67;11.73;;;;;;;2.80;100.00;152085.31;5025180;28;20511;-91
2024/02/06 05:42:19;;;;;;;16.07;11.97;;;;;;;2.87;100.00;152102.00;5009726;28;20439;-92
2024/02/06 05:44:46;;;;;;;17.40;11.97;;;;;;;2.90;100.00;152109.75;4978508;28;20649;-93
2024/02/06 05:47:14;;;;;;;19.00;12.30;;;;;;;2.97;100.00;152127.75;5006147;28;20488;-92
2024/02/06 05:49:41;;;;;;;17.37;10.60;;;;;;;3.01;100.00;152138.06;5011975;28;20464;-92
2024/02/06 05:52:08;;;;;;;17.87;11.50;;;;;;;3.06;100.00;152152.22;4998009;28;20510;-93
2024/02/06 05:54:35;;;;;;;16.93;12.20;;;;;;;3.09;100.00;152158.66;4987463;28;20533;-93
2024/02/06 05:57:01;;;;;;;15.10;11.03;;;;;;;3.08;100.00;152157.34;4996938;28;20910;-92
2024/02/06 05:59:28;;;;;;;13.83;9.03;;;;;;;3.11;100.00;152162.47;5013494;28;20423;-93
2024/02/06 06:02:03;;;;;;;13.17;9.67;;;;;;;3.11;100.00;152162.47;4980589;28;20449;-92
2024/02/06 06:04:31;;;;;;;15.63;9.60;;;;;;;3.13;100.00;152168.91;4994515;28;20445;-94
2024/02/06 06:06:58;;;;;;;14.77;10.57;;;;;;;3.12;100.00;152166.38;4979149;28;20488;-93
2024/02/06 06:09:25;;;;;;;12.73;9.60;;;;;;;3.12;100.00;152166.38;4987324;28;20605;-93
2024/02/06 06:11:51;;;;;;;14.20;9.53;;;;;;;3.14;100.00;152171.50;4983668;28;20485;-89
2024/02/06 06:14:18;;;;;;;16.60;10.80;;;;;;;3.15;100.00;152174.03;4979278;28;20548;-93
2024/02/06 06:16:45;;;;;;;12.10;9.40;;;;;;;3.17;100.00;152179.22;5024953;28;20452;-94
2024/02/06 06:19:12;;;;;;;13.90;9.67;;;;;;;3.18;100.00;152180.53;5020697;28;20453;-94
2024/02/06 06:21:40;;;;;;;12.97;7.90;;;;;;;3.19;100.00;152183.06;4983545;28;20499;-94
2024/02/06 06:24:07;;;;;;;10.60;9.10;;;;;;;3.21;100.00;152189.50;5006910;28;20552;-94
2024/02/06 06:26:37;;;;;;;13.00;8.53;;;;;;;3.23;100.00;152193.41;4984855;28;20457;-94
2024/02/06 06:29:03;;;;;;;11.80;8.90;;;;;;;3.22;100.00;152192.09;4993488;28;20857;-94
2024/02/06 06:31:31;;;;;;;11.67;9.07;;;;;;;3.25;100.00;152199.81;4993756;28;20579;-94
2024/02/06 06:33:57;;;;;;;12.77;9.30;;;;;;;3.27;100.00;152203.66;5007760;28;20452;-93
2024/02/06 06:36:24;;;;;;;13.10;9.20;;;;;;;3.29;100.00;152208.81;5011577;28;20448;-93
2024/02/06 06:38:54;;;;;;;14.30;9.50;;;;;;;3.32;100.00;152216.53;5031850;28;20905;-94
2024/02/06 06:41:24;;;;;;;13.03;9.27;;;;;;;3.30;100.00;152212.69;5034518;28;20455;-94
2024/02/06 06:43:51;;;;;;;11.00;8.70;;;;;;;3.35;100.00;152225.56;5024580;28;20948;-94
2024/02/06 06:46:17;;;;;;;13.20;8.73;;;;;;;3.35;100.00;152225.56;5014322;28;20463;-94
2024/02/06 06:48:44;;;;;;;15.50;9.60;;;;;;;3.38;100.00;152233.28;5016993;28;20450;-95
2024/02/06 06:51:10;;;;;;;12.50;8.10;;;;;;;3.37;100.00;152230.69;5012233;28;20469;-94
2024/02/06 06:53:37;;;;;;;9.10;7.70;;;;;;;3.36;100.00;152228.09;5038224;28;20534;-94
2024/02/06 06:56:07;;;;;;;10.40;8.40;;;;;;;3.36;100.00;152226.84;5012348;28;20485;-94
2024/02/06 06:58:33;;;;;;;12.20;7.83;;;;;;;3.38;100.00;152232.00;5013403;28;20467;-94
2024/02/06 07:01:00;;;;;;;14.33;8.00;;;;;;;3.38;100.00;152232.00;5013043;28;20474;-92
2024/02/06 07:03:27;;;;;;;9.73;7.60;;;;;;;3.40;100.00;152238.41;5009238;28;20459;-93
2024/02/06 07:05:53;;;;;;;11.30;8.00;;;;;;;3.42;100.00;152243.56;5006908;28;20466;-93
2024/02/06 07:08:20;;;;;;;11.47;8.73;;;;;;;3.45;100.00;152251.28;5020711;28;20444;-93
2024/02/06 07:10:47;;;;;;;12.00;8.87;;;;;;;3.45;100.00;152251.28;5021627;28;20456;-93
2024/02/06 07:13:15;;;;;;;12.27;8.00;;;;;;;3.47;100.00;152256.44;5023223;28;20495;-93
2024/02/06 07:15:41;;;;;;;10.87;7.00;;;;;;;3.45;100.00;152251.28;5008324;28;20461;-91
2024/02/06 07:18:08;;;;;;;10.33;8.40;;;;;;;3.46;100.00;152253.88;5017874;28;20460;-94
2024/02/06 07:20:35;;;;;;;12.90;8.00;;;;;;;3.49;100.00;152260.31;5031991;28;20462;-95
2024/02/06 07:23:02;;;;;;;12.87;7.60;;;;;;;3.50;100.00;152264.16;5018496;28;20484;-95
2024/02/06 07:25:28;;;;;;;9.17;6.80;;;;;;;3.54;100.00;152274.47;5016194;28;20982;-95
2024/02/06 07:27:55;;;;;;;8.03;6.73;;;;;;;3.57;100.00;152280.91;5032795;28;20955;-93
2024/02/06 07:30:23;;;;;;;10.10;6.57;;;;;;;3.58;100.00;152284.75;5014767;28;20978;-94
2024/02/06 07:32:50;;;;;;;9.43;6.87;;;;;;;3.64;100.00;152298.91;5031979;28;20492;-94
2024/02/06 07:35:16;;;;;;;9.87;6.70;;;;;;;3.67;100.00;152307.94;5032543;28;20436;-93
2024/02/06 07:37:43;;;;;;;9.50;6.90;;;;;;;3.69;100.00;152313.09;5016495;28;20467;-94
2024/02/06 07:40:10;;;;;;;10.50;6.30;;;;;;;3.73;100.00;152320.81;5016949;28;20424;-93
2024/02/06 07:42:37;;;;;;;12.10;6.43;;;;;;;3.76;100.00;152328.53;5017174;28;20444;-92
2024/02/06 07:45:05;;;;;;;7.70;5.70;;;;;;;3.79;100.00;152336.22;5013906;28;20456;-93
2024/02/06 07:47:33;;;;;;;8.90;6.07;;;;;;;3.83;100.00;152346.56;5022005;28;20472;-94
2024/02/06 07:50:00;;;;;;;7.20;5.10;;;;;;;3.87;100.00;152356.81;5013129;28;20441;-94
2024/02/06 07:52:27;;;;;;;7.70;4.90;;;;;;;3.89;100.00;152362.00;5022368;28;20952;-85
2024/02/06 07:54:53;;;;;;;10.20;6.40;;;;;;;3.91;100.00;152367.16;5026114;28;20518;-93
2024/02/06 07:57:21;;;;;;;6.30;5.63;;;;;;;3.94;100.00;152374.88;5030273;28;20471;-95
2024/02/06 07:59:47;;;;;;;9.50;6.07;;;;;;;3.99;100.00;152387.75;5015147;28;20765;-96
2024/02/06 08:02:14;;;;;;;9.13;6.40;;;;;;;4.01;100.00;152392.91;5015149;28;20448;-95
2024/02/06 08:04:45;;;;;;;7.10;5.10;;;;;;;4.04;100.00;152400.63;5003470;28;20436;-95
2024/02/06 08:07:11;;;;;;;7.27;5.23;;;;;;;4.07;100.00;152408.38;5031404;28;20472;-95
2024/02/06 08:09:38;;;;;;;6.87;5.10;;;;;;;4.09;100.00;152413.50;5047869;28;20452;-94
2024/02/06 08:12:06;;;;;;;9.63;5.70;;;;;;;4.13;100.00;152423.84;5014816;28;20498;-95
2024/02/06 08:14:32;;;;;;;7.00;5.40;;;;;;;4.11;100.00;152418.66;5014625;28;20521;-94
2024/02/06 08:16:59;;;;;;;7.83;5.50;;;;;;;4.17;100.00;152434.13;5014740;28;20456;-94
2024/02/06 08:19:25;;;;;;;9.80;5.50;;;;;;;4.19;100.00;152439.25;5026967;28;20444;-95
2024/02/06 08:21:53;;;;;;;7.60;5.30;;;;;;;4.22;100.00;152447.00;5013979;28;20490;-94
2024/02/06 08:24:20;;;;;;;10.67;5.63;;;;;;;4.26;100.00;152457.31;5014639;28;20452;-95
2024/02/06 08:26:46;;;;;;;7.73;4.90;;;;;;;4.29;100.00;152465.00;5014537;28;20482;-95
2024/02/06 08:29:13;;;;;;;6.53;5.00;;;;;;;4.31;100.00;152470.19;5014758;28;20444;-94
2024/02/06 08:31:40;;;;;;;8.67;4.70;;;;;;;4.35;100.00;152480.47;5014334;28;20488;-94
2024/02/06 08:34:06;;;;;;;7.40;5.07;;;;;;;4.38;100.00;152488.22;5014863;28;20636;-94
2024/02/06 08:36:33;;;;;;;9.70;4.87;;;;;;;4.41;100.00;152495.94;5014427;28;20934;-94
2024/02/06 08:39:01;;;;;;;6.17;4.80;;;;;;;4.44;100.00;152503.69;5031080;28;20438;-95
2024/02/06 08:41:28;;;;;;;7.33;4.70;;;;;;;4.47;100.00;152511.41;5018821;28;20456;-95
2024/02/06 08:43:55;;;;;;;7.67;5.13;;;;;;;4.52;100.00;152524.28;5010095;28;20525;-94
2024/02/06 08:46:22;;;;;;;10.20;5.30;;;;;;;4.56;100.00;152534.59;5014200;28;20542;-95
2024/02/06 08:48:48;;;;;;;6.77;4.03;;;;;;;4.63;100.00;152552.59;5021790;28;20791;-95
2024/02/06 08:51:15;;;;;;;6.73;4.70;;;;;;;4.70;100.00;152570.66;5011942;28;20479;-94
2024/02/06 08:53:41;;;;;;;6.70;4.63;;;;;;;4.75;100.00;152583.56;5028351;28;20451;-94
2024/02/06 08:56:10;;;;;;;10.00;4.83;;;;;;;4.81;100.00;152599.03;4997685;28;20502;-94
2024/02/06 08:58:37;;;;;;;11.43;4.40;;;;;;;4.88;100.00;152615.75;5014191;28;20475;-95
2024/02/06 09:01:03;;;;;;;7.37;4.80;;;;;;;4.92;100.00;152627.34;5047070;28;20558;-94
2024/02/06 09:03:30;;;;;;;6.77;4.67;;;;;;;4.99;100.00;152642.81;4997580;28;20534;-94
2024/02/06 09:05:57;;;;;;;7.67;4.80;;;;;;;5.06;100.00;152660.84;5030003;28;20454;-95
2024/02/06 09:08:24;;;;;;;7.50;4.60;;;;;;;5.09;100.00;152668.59;5030421;28;20527;-94
2024/02/06 09:10:50;;;;;;;8.30;4.80;;;;;;;5.13;100.00;152678.94;5013940;28;20539;-94
2024/02/06 09:13:18;;;;;;;5.03;4.40;;;;;;;5.15;100.00;152684.06;5030313;28;20476;-94
2024/02/06 09:15:45;;;;;;;7.50;5.37;;;;;;;5.19;100.00;152694.41;4994140;28;20815;-94
2024/02/06 09:18:12;;;;;;;5.83;4.70;;;;;;;5.25;100.00;152709.84;4993684;28;20454;-94
2024/02/06 09:20:39;;;;;;;6.80;4.27;;;;;;;5.27;100.00;152715.03;5013762;28;20778;-94
2024/02/06 09:23:05;;;;;;;7.03;4.03;;;;;;;5.30;100.00;152722.72;5023087;28;20489;-94
2024/02/06 09:25:32;;;;;;;6.63;4.30;;;;;;;5.38;100.00;152743.34;5030199;28;20924;-94
2024/02/06 09:27:58;;;;;;;7.00;4.73;;;;;;;5.41;100.00;152752.41;5014004;28;20461;-94
2024/02/06 09:30:26;;;;;;;5.60;3.90;;;;;;;5.43;100.00;152757.53;5029857;28;20451;-93
2024/02/06 09:32:54;;;;;;;6.70;4.77;;;;;;;5.52;100.00;152779.47;5029773;28;20494;-94
2024/02/06 09:35:20;;;;;;;4.60;3.33;;;;;;;5.59;100.00;152797.50;5002132;28;20440;-93
2024/02/06 09:37:47;;;;;;;6.13;3.97;;;;;;;5.61;100.00;152801.41;4997032;28;20473;-94
2024/02/06 09:40:13;;;;;;;6.73;4.17;;;;;;;5.65;100.00;152813.00;5013551;28;20436;-93
2024/02/06 09:42:41;;;;;;;7.70;3.90;;;;;;;5.68;100.00;152819.44;4997118;28;20458;-93
2024/02/06 09:45:09;;;;;;;6.57;4.00;;;;;;;5.77;100.00;152843.94;4997292;28;20436;-94
2024/02/06 09:47:37;;;;;;;8.30;4.40;;;;;;;5.82;100.00;152856.88;4997264;28;20485;-92
2024/02/06 09:50:04;;;;;;;4.80;3.60;;;;;;;5.93;100.00;152885.25;4996787;28;20444;-94
2024/02/06 09:52:31;;;;;;;8.43;4.30;;;;;;;5.98;100.00;152898.16;4997318;28;20511;-93
2024/02/06 09:54:59;;;;;;;5.70;3.77;;;;;;;6.03;100.00;152911.09;4997308;28;20443;-93
2024/02/06 09:57:27;;;;;;;6.20;3.53;;;;;;;6.08;100.00;152923.97;4997002;28;20926;-93
2024/02/06 09:59:54;;;;;;;4.23;3.27;;;;;;;6.19;100.00;152949.78;5013417;28;20444;-93
2024/02/06 10:02:21;;;;;;;6.47;3.93;;;;;;;6.27;100.00;152970.41;4997183;28;20436;-94
2024/02/06 10:04:51;;;;;;;5.60;3.13;;;;;;;6.28;100.00;152974.28;5004690;28;20452;-93
2024/02/06 10:07:17;;;;;;;4.20;3.20;;;;;;;6.35;100.00;152991.06;5012906;28;20468;-94
2024/02/06 10:09:46;;;;;;;7.60;3.20;;;;;;;6.41;100.00;153007.81;5012815;28;20530;-93
2024/02/06 10:12:13;;;;;;;4.93;3.30;;;;;;;6.45;100.00;153016.88;5009623;28;20504;-93
2024/02/06 10:14:40;;;;;;;3.90;2.60;;;;;;;6.51;100.00;153032.38;4993599;28;20433;-94
2024/02/06 10:17:09;;;;;;;5.50;3.00;;;;;;;6.55;100.00;153043.97;5010651;28;20553;-93
2024/02/06 10:19:35;;;;;;;4.97;3.60;;;;;;;6.58;100.00;153050.41;5012822;28;20456;-93
2024/02/06 10:22:04;;;;;;;4.53;2.87;;;;;;;6.62;100.00;153060.72;5013161;28;20456;-93
2024/02/06 10:24:31;;;;;;;5.20;2.97;;;;;;;6.66;100.00;153072.38;5013049;28;20459;-93
2024/02/06 10:27:02;;;;;;;3.40;2.20;;;;;;;6.71;100.00;153083.97;5012695;28;20517;-92
2024/02/06 10:29:28;;;;;;;2.90;2.27;;;;;;;6.75;100.00;153094.31;5012867;28;20996;-93
2024/02/06 10:31:58;;;;;;;4.80;2.70;;;;;;;6.79;100.00;153104.63;5012490;28;20475;-93
2024/02/06 10:34:25;;;;;;;3.20;2.40;;;;;;;6.82;100.00;153112.38;5013009;28;20432;-93
2024/02/06 10:36:57;;;;;;;4.00;2.70;;;;;;;6.87;100.00;153125.28;5012702;28;20448;-92
2024/02/06 10:39:27;;;;;;;5.10;2.73;;;;;;;6.92;100.00;153138.19;5013616;28;20459;-92
2024/02/06 10:41:58;;;;;;;4.07;2.13;;;;;;;6.95;100.00;153144.63;5013378;28;20543;-92
2024/02/06 10:44:26;;;;;;;2.97;2.00;;;;;;;7.01;100.00;153160.13;5031182;28;20943;-91
2024/02/06 10:46:58;;;;;;;3.83;2.47;;;;;;;7.05;100.00;153170.44;5029847;28;20447;-93
2024/02/06 10:49:25;;;;;;;3.80;3.10;;;;;;;7.13;100.00;153191.09;5012950;28;20420;-93
2024/02/06 10:51:52;;;;;;;3.20;2.53;;;;;;;7.15;100.00;153197.56;5028711;28;20455;-93
2024/02/06 10:54:20;;;;;;;5.07;2.20;;;;;;;7.17;100.00;153202.75;5012457;28;20535;-94
2024/02/06 10:56:53;;;;;;;4.13;2.10;;;;;;;7.18;100.00;153205.31;5020152;28;20458;-93
2024/02/06 10:59:22;;;;;;;2.40;1.50;;;;;;;7.21;100.00;153213.06;4988231;28;20444;-94
2024/02/06 11:01:49;;;;;;;3.33;1.73;;;;;;;7.23;100.00;153218.22;5019012;28;20450;-92
2024/02/06 11:04:23;;;;;;;3.40;2.10;;;;;;;7.26;100.00;153225.97;5032356;28;20980;-94
2024/02/06 11:06:53;;;;;;;1.93;1.50;;;;;;;7.31;100.00;153238.88;5015257;28;20557;-94
2024/02/06 11:09:22;;;;;;;2.40;1.20;;;;;;;7.36;100.00;153251.78;5015395;28;20970;-93
2024/02/06 11:11:50;;;;;;;2.23;1.63;;;;;;;7.39;100.00;153258.25;5014578;28;20462;-93
2024/02/06 11:14:17;;;;;;;1.50;1.30;;;;;;;7.47;100.00;153277.63;5024706;28;20455;-93
2024/02/06 11:16:52;;;;;;;2.50;1.17;;;;;;;7.49;100.00;153282.81;5012558;28;20466;-93